Time;durP1;ratioP1;P1;durP2;ratioP2;P2;SDS_P1;SDS_P2;PMS_P1;PMS_P2;Temp;Humidity;BMP_temperature;BMP_pressure;BME280_temperature;BME280_humidity;BME280_pressure;Samples;Min_cycle;Max_cycle;Signal;HPM_P1;HPM_P2
2021/06/16 00:00:28;;;;;;;;;20.50;19.75;;;;;24.47;54.28;101395.94;4981945;28;45284;-69
2021/06/16 00:02:53;;;;;;;;;21.00;21.00;;;;;24.44;54.38;101385.50;4997261;28;45443;-69
2021/06/16 00:05:25;;;;;;;;;21.50;20.75;;;;;24.41;54.49;101384.88;4981449;28;45232;-70
2021/06/16 00:07:51;;;;;;;;;22.50;19.25;;;;;24.37;54.45;101389.66;4981430;28;45450;-68
2021/06/16 00:10:19;;;;;;;;;20.25;18.75;;;;;24.33;54.64;101383.66;4980854;28;45576;-68
2021/06/16 00:12:45;;;;;;;;;23.00;21.00;;;;;24.28;54.98;101381.38;4982199;28;45170;-70
2021/06/16 00:15:15;;;;;;;;;19.75;18.50;;;;;24.26;55.35;101382.47;4982163;28;45356;-67
2021/06/16 00:17:40;;;;;;;;;23.25;19.75;;;;;24.21;55.26;101385.50;4981701;28;45306;-67
2021/06/16 00:20:06;;;;;;;;;18.75;18.00;;;;;24.19;55.72;101383.91;4981754;28;45521;-68
2021/06/16 00:22:32;;;;;;;;;21.25;20.00;;;;;24.13;55.14;101366.47;4981612;28;45155;-68
2021/06/16 00:24:57;;;;;;;;;20.25;19.00;;;;;24.10;55.39;101377.47;4980178;28;46052;-68
2021/06/16 00:27:23;;;;;;;;;22.75;22.75;;;;;24.08;55.35;101369.53;4981884;28;46475;-68
2021/06/16 00:29:48;;;;;;;;;26.25;23.25;;;;;24.07;55.64;101370.53;4980547;28;45309;-68
2021/06/16 00:32:13;;;;;;;;;22.50;20.50;;;;;24.04;55.54;101368.94;4981700;28;45218;-68
2021/06/16 00:34:39;;;;;;;;;22.75;21.25;;;;;24.01;55.92;101363.81;4981202;28;45265;-68
2021/06/16 00:37:05;;;;;;;;;21.50;19.75;;;;;23.98;55.67;101361.38;4981200;28;45378;-68
2021/06/16 00:39:30;;;;;;;;;25.25;22.50;;;;;23.94;55.77;101362.59;4981515;28;45617;-68
2021/06/16 00:41:56;;;;;;;;;21.75;18.00;;;;;23.91;56.40;101365.53;4979627;28;45170;-68
2021/06/16 00:44:21;;;;;;;;;21.50;21.50;;;;;23.88;56.19;101365.78;4981415;28;45453;-69
2021/06/16 00:46:47;;;;;;;;;22.50;21.50;;;;;23.85;56.20;101358.84;4981330;28;45455;-69
2021/06/16 00:49:12;;;;;;;;;21.50;21.25;;;;;23.82;56.25;101359.94;4979725;28;45770;-69
2021/06/16 00:51:38;;;;;;;;;20.00;20.00;;;;;23.78;56.50;101354.94;4981061;28;45348;-69
2021/06/16 00:54:10;;;;;;;;;21.00;21.00;;;;;23.74;56.47;101348.97;4980224;28;46946;-69
2021/06/16 00:56:41;;;;;;;;;21.25;17.75;;;;;23.72;56.68;101348.22;4979653;28;48109;-70
2021/06/16 00:59:08;;;;;;;;;21.00;21.00;;;;;23.68;56.86;101344.09;4979589;28;45436;-70
2021/06/16 01:01:45;;;;;;;;;25.25;23.50;;;;;23.66;56.87;101343.34;4980824;28;46674;-70
2021/06/16 01:04:19;;;;;;;;;26.00;21.00;;;;;23.62;57.31;101341.88;4981168;28;45227;-70
2021/06/16 01:07:02;;;;;;;;;21.50;20.50;;;;;23.59;57.26;101342.97;4980248;28;46459;-70
2021/06/16 01:09:32;;;;;;;;;23.75;20.00;;;;;23.56;57.48;101338.72;4980877;28;45239;-68
2021/06/16 01:12:17;;;;;;;;;21.25;19.50;;;;;23.50;57.45;101333.84;4980121;28;45328;-69
2021/06/16 01:15:09;;;;;;;;;24.50;23.25;;;;;23.44;58.27;101327.09;4992876;28;46524;-69
2021/06/16 01:17:41;;;;;;;;;21.50;21.50;;;;;23.41;58.11;101329.19;4995803;28;48569;-68
2021/06/16 01:20:20;;;;;;;;;21.75;19.75;;;;;23.38;58.23;101327.59;4980592;28;45269;-69
2021/06/16 01:22:57;;;;;;;;;24.25;22.50;;;;;23.37;57.69;101326.75;4981362;28;45233;-69
2021/06/16 01:25:58;;;;;;;;;23.00;22.50;;;;;23.37;57.89;101323.19;4980951;28;45592;-69
2021/06/16 01:28:29;;;;;;;;;22.25;21.75;;;;;23.35;58.06;101320.66;4973480;28;45333;-69
2021/06/16 01:30:57;;;;;;;;;22.75;22.50;;;;;23.33;58.49;101316.38;4980856;28;45633;-69
2021/06/16 01:33:22;;;;;;;;;24.75;22.50;;;;;23.31;58.18;101307.59;4980255;28;45399;-69
2021/06/16 01:35:51;;;;;;;;;25.50;23.25;;;;;23.31;58.16;101315.66;4980548;28;45651;-69
2021/06/16 01:38:20;;;;;;;;;24.50;22.75;;;;;23.27;58.18;101315.88;4979998;28;46084;-67
2021/06/16 01:40:48;;;;;;;;;22.50;20.75;;;;;23.24;58.54;101310.75;4980900;28;45316;-68
2021/06/16 01:43:16;;;;;;;;;21.00;21.00;;;;;23.22;58.52;101312.69;4979734;28;45317;-68
2021/06/16 01:45:46;;;;;;;;;24.00;24.00;;;;;23.18;58.49;101313.06;4980742;28;45468;-71
2021/06/16 01:48:16;;;;;;;;;23.25;23.25;;;;;23.12;58.34;101314.38;4979855;28;45510;-68
2021/06/16 01:50:44;;;;;;;;;21.00;20.50;;;;;23.09;58.88;101309.28;4980512;28;45615;-68
2021/06/16 01:53:11;;;;;;;;;24.50;21.00;;;;;23.04;59.59;101312.31;4980569;28;45474;-70
2021/06/16 01:55:37;;;;;;;;;20.50;20.50;;;;;23.02;59.28;101307.06;4980377;28;45272;-71
2021/06/16 01:58:03;;;;;;;;;24.00;23.00;;;;;23.00;59.00;101306.34;4980001;28;45426;-71
2021/06/16 02:00:30;;;;;;;;;25.50;23.50;;;;;22.99;59.29;101307.31;4980733;28;45256;-71
2021/06/16 02:02:56;;;;;;;;;27.75;22.50;;;;;22.99;59.10;101306.47;4980086;28;45304;-71
2021/06/16 02:05:23;;;;;;;;;23.75;21.75;;;;;22.98;59.57;101307.44;4979978;28;45388;-71
2021/06/16 02:08:12;;;;;;;;;22.25;21.75;;;;;22.96;59.66;101299.53;4979494;28;45372;-71
2021/06/16 02:10:49;;;;;;;;;22.00;21.25;;;;;22.95;59.20;101304.97;4980558;28;45309;-71
2021/06/16 02:13:20;;;;;;;;;22.75;22.75;;;;;22.92;59.90;101292.66;4982164;28;45426;-70
2021/06/16 02:16:00;;;;;;;;;21.25;20.50;;;;;22.88;59.52;101292.06;4989937;28;45278;-71
2021/06/16 02:18:33;;;;;;;;;23.75;21.50;;;;;22.86;60.28;101285.13;4994734;28;47130;-71
2021/06/16 02:20:59;;;;;;;;;26.25;23.50;;;;;22.83;60.32;101288.88;4979957;28;45471;-71
2021/06/16 02:23:24;;;;;;;;;22.25;21.75;;;;;22.81;60.30;101285.47;4978878;28;45285;-71
2021/06/16 02:25:50;;;;;;;;;25.50;24.25;;;;;22.78;59.74;101285.69;4980031;28;45230;-71
2021/06/16 02:28:16;;;;;;;;;25.50;24.25;;;;;22.75;60.13;101284.09;4979555;28;45501;-71
2021/06/16 02:30:41;;;;;;;;;26.00;23.50;;;;;22.72;60.15;101286.19;4980146;28;45349;-70
2021/06/16 02:33:07;;;;;;;;;21.75;20.50;;;;;22.70;60.53;101273.75;4979488;28;45254;-70
2021/06/16 02:35:32;;;;;;;;;29.00;26.00;;;;;22.68;60.30;101274.81;4979700;28;45498;-70
2021/06/16 02:38:03;;;;;;;;;23.00;22.25;;;;;22.68;60.78;101275.66;4979006;28;45390;-69
2021/06/16 02:40:30;;;;;;;;;25.00;24.25;;;;;22.66;60.34;101274.94;4979984;28;45237;-69
2021/06/16 02:42:56;;;;;;;;;25.75;24.75;;;;;22.66;60.34;101274.06;4980166;28;45611;-70
2021/06/16 02:45:24;;;;;;;;;24.75;23.00;;;;;22.65;60.69;101270.53;4979922;28;45452;-71
2021/06/16 02:47:51;;;;;;;;;31.75;27.75;;;;;22.64;60.54;101270.66;4979125;28;45661;-70
2021/06/16 02:50:21;;;;;;;;;25.25;23.75;;;;;22.62;60.80;101261.91;4979587;28;45304;-70
2021/06/16 02:52:48;;;;;;;;;24.00;20.50;;;;;22.59;60.92;101263.81;4979943;28;45374;-70
2021/06/16 02:55:14;;;;;;;;;24.00;22.75;;;;;22.56;60.79;101264.06;4979731;28;45315;-68
2021/06/16 02:57:42;;;;;;;;;26.00;23.00;;;;;22.53;60.86;101260.75;4979214;28;46246;-68
2021/06/16 03:00:10;;;;;;;;;22.50;20.50;;;;;22.51;61.19;101263.56;4979351;28;45221;-68
2021/06/16 03:02:38;;;;;;;;;24.75;22.50;;;;;22.47;60.75;101257.56;4977937;28;45301;-68
2021/06/16 03:05:06;;;;;;;;;24.50;22.25;;;;;22.47;60.61;101254.06;4977470;28;47235;-68
2021/06/16 03:07:35;;;;;;;;;26.50;22.75;;;;;22.45;60.80;101259.53;4979287;28;46611;-68
2021/06/16 03:10:03;;;;;;;;;23.75;21.75;;;;;22.45;61.20;101258.66;4979525;28;45234;-68
2021/06/16 03:12:29;;;;;;;;;22.25;22.00;;;;;22.44;60.82;101257.81;4994350;28;45399;-68
2021/06/16 03:14:58;;;;;;;;;29.50;24.00;;;;;22.42;60.79;101256.22;4979724;28;46375;-68
2021/06/16 03:17:26;;;;;;;;;25.00;21.00;;;;;22.39;61.25;101254.63;4979348;28;45301;-68
2021/06/16 03:19:52;;;;;;;;;25.50;24.50;;;;;22.36;61.65;101261.06;4977714;28;45751;-68
2021/06/16 03:22:19;;;;;;;;;22.75;21.75;;;;;22.33;61.42;101258.63;4979466;28;46520;-68
2021/06/16 03:24:46;;;;;;;;;23.25;23.25;;;;;22.31;61.17;101255.22;4978853;28;45396;-68
2021/06/16 03:27:13;;;;;;;;;22.00;22.00;;;;;22.29;61.57;101258.97;4979499;28;45603;-68
2021/06/16 03:29:40;;;;;;;;;22.50;20.50;;;;;22.26;61.27;101258.25;4979297;28;45246;-68
2021/06/16 03:32:08;;;;;;;;;24.00;23.25;;;;;22.26;61.77;101260.06;4979673;28;45171;-68
2021/06/16 03:34:34;;;;;;;;;23.75;23.00;;;;;22.25;61.47;101253.84;4980506;28;45535;-68
2021/06/16 03:37:02;;;;;;;;;23.25;22.25;;;;;22.26;61.61;101252.03;4981711;28;46240;-68
2021/06/16 03:39:28;;;;;;;;;26.00;25.75;;;;;22.24;61.86;101252.16;4982690;28;45208;-68
2021/06/16 03:41:54;;;;;;;;;23.50;23.25;;;;;22.23;61.53;101255.78;4982370;28;45281;-67
2021/06/16 03:44:21;;;;;;;;;24.50;23.50;;;;;22.21;61.54;101256.88;4982741;28;45325;-68
2021/06/16 03:46:47;;;;;;;;;24.25;23.25;;;;;22.21;62.03;101256.88;4981628;28;45331;-68
2021/06/16 03:49:15;;;;;;;;;27.50;26.75;;;;;22.20;61.71;101257.84;4982300;28;45776;-67
2021/06/16 03:51:42;;;;;;;;;23.75;22.00;;;;;22.18;61.72;101257.94;4981857;28;45335;-67
2021/06/16 03:54:12;;;;;;;;;29.75;26.75;;;;;22.17;61.98;101260.75;4982027;28;45468;-67
2021/06/16 03:56:39;;;;;;;;;24.50;23.50;;;;;22.13;62.17;101265.47;4982306;28;45585;-67
2021/06/16 03:59:06;;;;;;;;;22.75;22.75;;;;;22.11;61.99;101260.25;4997419;28;45282;-67
2021/06/16 04:01:32;;;;;;;;;32.50;26.75;;;;;22.09;61.84;101253.28;4980802;28;45296;-67
2021/06/16 04:03:57;;;;;;;;;29.50;25.75;;;;;22.07;62.18;101250.75;4981779;28;45148;-68
2021/06/16 04:06:23;;;;;;;;;27.50;25.50;;;;;22.07;61.96;101255.22;4981518;28;45595;-67
2021/06/16 04:08:50;;;;;;;;;24.75;24.75;;;;;22.07;62.10;101252.56;4980635;28;45320;-68
2021/06/16 04:11:16;;;;;;;;;24.25;23.75;;;;;22.06;62.23;101242.81;4982396;28;45289;-69
2021/06/16 04:13:41;;;;;;;;;27.00;26.50;;;;;22.04;62.06;101248.28;4987246;28;45354;-69
2021/06/16 04:16:08;;;;;;;;;25.75;24.25;;;;;22.06;62.39;101253.50;4988832;28;45979;-68
2021/06/16 04:18:34;;;;;;;;;31.00;28.50;;;;;22.05;62.83;101259.84;4981880;28;45752;-68
2021/06/16 04:21:02;;;;;;;;;28.00;26.00;;;;;22.07;62.25;101263.25;4980598;28;45521;-68
2021/06/16 04:23:29;;;;;;;;;28.50;27.25;;;;;22.05;62.29;101257.16;4980309;28;45577;-68
2021/06/16 04:25:55;;;;;;;;;33.00;28.50;;;;;22.06;62.59;101258.88;4981554;28;45276;-68
2021/06/16 04:28:20;;;;;;;;;30.50;26.00;;;;;22.06;62.48;101257.03;4981810;28;45331;-69
2021/06/16 04:30:46;;;;;;;;;26.25;24.25;;;;;22.06;63.07;101243.66;4982011;28;45553;-69
2021/06/16 04:33:11;;;;;;;;;28.75;26.00;;;;;22.07;62.72;101252.56;4983075;28;45214;-67
2021/06/16 04:35:36;;;;;;;;;24.25;24.25;;;;;22.07;63.16;101250.75;4985133;28;46378;-67
2021/06/16 04:38:02;;;;;;;;;23.25;22.25;;;;;22.07;62.85;101239.16;4980825;28;45487;-73
2021/06/16 04:40:27;;;;;;;;;26.00;25.25;;;;;22.08;62.82;101238.19;4981831;28;45257;-69
2021/06/16 04:42:53;;;;;;;;;26.00;23.50;;;;;22.09;63.06;101234.56;4981634;28;45281;-68
2021/06/16 04:45:19;;;;;;;;;25.25;25.00;;;;;22.10;63.28;101234.44;4980180;28;46019;-69
2021/06/16 04:47:44;;;;;;;;;25.00;23.25;;;;;22.08;63.34;101225.66;4980357;28;45322;-69
2021/06/16 04:50:12;;;;;;;;;26.75;26.00;;;;;22.12;63.63;101228.97;4981276;28;45393;-67
2021/06/16 04:52:38;;;;;;;;;26.50;24.00;;;;;22.13;63.57;101228.00;4981179;28;45494;-67
2021/06/16 04:55:09;;;;;;;;;25.00;24.50;;;;;22.18;63.28;101223.16;4980297;28;48039;-68
2021/06/16 04:57:34;;;;;;;;;30.75;26.75;;;;;22.22;63.43;101227.31;4981001;28;45494;-67
2021/06/16 05:00:00;;;;;;;;;26.50;25.50;;;;;22.25;63.60;101219.03;4980018;28;45436;-67
2021/06/16 05:02:26;;;;;;;;;24.00;24.00;;;;;22.29;63.45;101218.81;4981131;28;45408;-68
2021/06/16 05:04:51;;;;;;;;;23.50;21.50;;;;;22.32;62.85;101218.59;4978610;28;47174;-68
2021/06/16 05:07:16;;;;;;;;;28.25;25.75;;;;;22.36;63.37;101217.38;4977151;28;45680;-68
2021/06/16 05:09:42;;;;;;;;;28.00;28.00;;;;;22.40;62.33;101218.00;4979628;28;45486;-67
2021/06/16 05:12:08;;;;;;;;;27.75;27.00;;;;;22.44;62.60;101222.16;4981060;28;45333;-67
2021/06/16 05:14:33;;;;;;;;;28.75;27.00;;;;;22.48;62.38;101211.09;4981723;28;45301;-67
2021/06/16 05:16:59;;;;;;;;;25.50;24.75;;;;;22.53;62.19;101217.91;4980867;28;45241;-67
2021/06/16 05:19:24;;;;;;;;;31.50;29.00;;;;;22.58;61.88;101211.22;4980929;28;45154;-67
2021/06/16 05:21:51;;;;;;;;;28.25;25.50;;;;;22.64;61.88;101214.41;4979046;28;45249;-67
2021/06/16 05:24:17;;;;;;;;;24.25;24.25;;;;;22.69;62.29;101206.91;4976747;28;45595;-68
2021/06/16 05:26:42;;;;;;;;;34.25;28.75;;;;;22.74;62.08;101217.25;4980727;28;45779;-67
2021/06/16 05:29:09;;;;;;;;;29.25;27.00;;;;;22.78;61.70;101214.22;4976788;28;45338;-68
2021/06/16 05:31:36;;;;;;;;;23.50;21.75;;;;;22.85;61.30;101216.41;4979939;28;45463;-67
2021/06/16 05:34:02;;;;;;;;;24.50;24.25;;;;;22.92;62.04;101212.28;4986049;28;46535;-67
2021/06/16 05:36:27;;;;;;;;;25.75;24.50;;;;;22.98;61.12;101216.31;4978264;28;45599;-67
2021/06/16 05:38:53;;;;;;;;;21.75;21.25;;;;;23.04;60.60;101215.81;4980988;28;45269;-67
2021/06/16 05:41:18;;;;;;;;;28.50;27.50;;;;;23.09;61.17;101210.09;4979387;28;45372;-67
2021/06/16 05:43:44;;;;;;;;;28.25;27.00;;;;;23.13;60.86;101209.75;4980884;28;45392;-67
2021/06/16 05:46:11;;;;;;;;;26.25;25.00;;;;;23.16;61.07;101211.31;4980505;28;45266;-67
2021/06/16 05:48:36;;;;;;;;;24.25;24.25;;;;;23.18;61.00;101211.19;4980762;28;45312;-67
2021/06/16 05:51:01;;;;;;;;;26.75;24.25;;;;;23.23;60.05;101217.91;4979722;28;45468;-68
2021/06/16 05:53:27;;;;;;;;;22.25;20.75;;;;;23.29;60.50;101218.34;4978841;28;45297;-67
2021/06/16 05:55:52;;;;;;;;;27.25;24.00;;;;;23.33;60.70;101217.16;4979157;28;45644;-67
2021/06/16 05:58:18;;;;;;;;;24.50;22.75;;;;;23.33;59.75;101214.47;4979254;28;45700;-68
2021/06/16 06:00:43;;;;;;;;;24.75;22.75;;;;;23.35;59.27;101208.00;4979681;28;47097;-68
2021/06/16 06:03:08;;;;;;;;;25.25;24.00;;;;;23.41;59.78;101211.19;4978916;28;45364;-68
2021/06/16 06:05:34;;;;;;;;;23.00;23.00;;;;;23.44;58.88;101217.13;4980612;28;45435;-67
2021/06/16 06:07:59;;;;;;;;;23.25;21.00;;;;;23.51;59.50;101216.69;4979364;28;45362;-67
2021/06/16 06:10:25;;;;;;;;;23.50;23.25;;;;;23.56;58.91;101215.31;4979556;28;45297;-67
2021/06/16 06:12:50;;;;;;;;;23.50;22.00;;;;;23.62;58.58;101213.09;4978978;28;46354;-67
2021/06/16 06:15:16;;;;;;;;;27.75;24.50;;;;;23.67;58.47;101216.28;4978458;28;45373;-67
2021/06/16 06:17:42;;;;;;;;;26.00;24.00;;;;;23.71;58.35;101207.84;4975614;28;45460;-67
2021/06/16 06:20:08;;;;;;;;;25.50;24.25;;;;;23.74;57.87;101212.09;4974392;28;47269;-67
2021/06/16 06:22:34;;;;;;;;;23.25;22.00;;;;;23.79;58.74;101214.41;4979242;28;46551;-67
2021/06/16 06:24:59;;;;;;;;;24.25;22.25;;;;;23.80;57.97;101211.63;4978763;28;45316;-67
2021/06/16 06:27:25;;;;;;;;;24.50;22.50;;;;;23.86;57.63;101212.06;4979486;28;45218;-67
2021/06/16 06:29:50;;;;;;;;;23.25;21.75;;;;;23.89;57.70;101211.81;4979633;28;45423;-67
2021/06/16 06:32:16;;;;;;;;;22.00;21.50;;;;;23.92;56.92;101214.25;4979471;28;45230;-67
2021/06/16 06:34:41;;;;;;;;;24.00;23.75;;;;;23.94;57.11;101212.28;4980009;28;45210;-67
2021/06/16 06:37:06;;;;;;;;;22.00;20.75;;;;;23.97;57.01;101217.41;4978923;28;45253;-67
2021/06/16 06:39:32;;;;;;;;;23.50;22.25;;;;;24.00;57.93;101214.44;4978465;28;45431;-67
2021/06/16 06:41:57;;;;;;;;;24.00;22.00;;;;;24.02;56.64;101204.47;4979104;28;45345;-67
2021/06/16 06:44:23;;;;;;;;;22.75;19.75;;;;;24.02;56.28;101198.22;4978956;28;45871;-67
2021/06/16 06:46:48;;;;;;;;;21.00;21.00;;;;;24.00;56.47;101203.72;4979646;28;45419;-67
2021/06/16 06:49:14;;;;;;;;;25.00;22.00;;;;;24.03;56.37;101200.78;4978525;28;45467;-67
2021/06/16 06:51:39;;;;;;;;;25.25;23.50;;;;;24.09;56.19;101198.56;4978818;28;45418;-67
2021/06/16 06:54:08;;;;;;;;;21.75;20.75;;;;;24.13;56.99;101202.69;4969701;28;45269;-67
2021/06/16 06:56:37;;;;;;;;;23.25;22.25;;;;;24.16;55.70;101197.91;4977970;28;45281;-67
2021/06/16 06:59:04;;;;;;;;;21.50;21.00;;;;;24.13;55.75;101197.31;4979362;28;45472;-67
2021/06/16 07:01:29;;;;;;;;;21.75;20.75;;;;;24.16;55.46;101189.00;4974852;28;46364;-67
2021/06/16 07:03:55;;;;;;;;;23.25;21.75;;;;;24.18;55.90;101187.03;4978811;28;45419;-68
2021/06/16 07:06:21;;;;;;;;;26.50;21.00;;;;;24.21;55.68;101181.41;4979473;28;45455;-67
2021/06/16 07:08:46;;;;;;;;;24.00;21.75;;;;;24.24;56.62;101181.16;4979916;28;45413;-68
2021/06/16 07:11:12;;;;;;;;;22.25;21.50;;;;;24.23;55.47;101174.06;4982303;28;45471;-67
2021/06/16 07:13:37;;;;;;;;;21.00;20.25;;;;;24.17;55.23;101174.59;4983224;28;45279;-67
2021/06/16 07:16:02;;;;;;;;;25.00;22.25;;;;;24.18;56.25;101181.66;4983146;28;45167;-67
2021/06/16 07:18:28;;;;;;;;;32.50;26.25;;;;;24.23;56.43;101171.38;4982340;28;45467;-67
2021/06/16 07:20:53;;;;;;;;;23.00;22.75;;;;;24.29;55.92;101183.47;4981234;28;46547;-67
2021/06/16 07:23:19;;;;;;;;;20.00;19.25;;;;;24.32;56.84;101175.19;4981937;28;45427;-67
2021/06/16 07:25:44;;;;;;;;;23.75;22.50;;;;;24.38;56.60;101179.16;4979399;28;45325;-67
2021/06/16 07:28:10;;;;;;;;;23.00;20.00;;;;;24.41;56.05;101181.59;4979360;28;45159;-68
2021/06/16 07:30:35;;;;;;;;;20.00;19.00;;;;;24.46;57.05;101175.81;4982498;28;45357;-67
2021/06/16 07:33:01;;;;;;;;;22.50;20.00;;;;;24.52;56.00;101169.91;4981820;28;45376;-67
2021/06/16 07:35:26;;;;;;;;;23.25;21.50;;;;;24.53;55.58;101173.44;4982225;28;45280;-67
2021/06/16 07:37:52;;;;;;;;;19.75;18.75;;;;;24.54;55.46;101167.09;4981867;28;45472;-67
2021/06/16 07:40:18;;;;;;;;;22.50;21.75;;;;;24.57;55.56;101164.16;4982433;28;45250;-67
2021/06/16 07:42:44;;;;;;;;;19.75;19.50;;;;;24.59;55.83;101168.41;4982010;28;45907;-67
2021/06/16 07:45:10;;;;;;;;;21.75;17.25;;;;;24.61;55.38;101158.38;4982438;28;45285;-67
2021/06/16 07:47:36;;;;;;;;;41.00;35.75;;;;;24.66;55.62;101163.34;4981573;28;45598;-67
2021/06/16 07:50:04;;;;;;;;;19.25;17.75;;;;;24.72;55.05;101153.88;4982119;28;45305;-67
2021/06/16 07:52:30;;;;;;;;;19.50;17.25;;;;;24.74;55.11;101151.94;4982005;28;45616;-67
2021/06/16 07:54:55;;;;;;;;;21.25;19.25;;;;;24.77;55.46;101148.13;4981951;28;45364;-67
2021/06/16 07:57:21;;;;;;;;;20.75;20.00;;;;;24.81;55.05;101136.97;4981343;28;45443;-67
2021/06/16 07:59:46;;;;;;;;;20.00;18.00;;;;;24.77;54.72;101148.94;4981886;28;45224;-67
2021/06/16 08:02:12;;;;;;;;;17.50;17.50;;;;;24.73;54.48;101147.53;4981936;28;45438;-67
2021/06/16 08:04:40;;;;;;;;;17.25;15.25;;;;;24.77;54.91;101150.81;4982221;28;45363;-67
2021/06/16 08:07:10;;;;;;;;;20.00;19.00;;;;;24.82;54.79;101140.47;4981248;28;45583;-67
2021/06/16 08:09:41;;;;;;;;;13.00;13.00;;;;;24.87;54.68;101140.94;4981551;28;46226;-67
2021/06/16 08:12:09;;;;;;;;;21.25;17.50;;;;;24.82;54.11;101129.72;4981727;28;45494;-67
2021/06/16 08:14:35;;;;;;;;;20.50;20.50;;;;;24.77;54.67;101132.81;4981960;28;45501;-67
2021/06/16 08:17:00;;;;;;;;;17.75;17.50;;;;;24.77;54.20;101134.69;4981651;28;45159;-67
2021/06/16 08:19:25;;;;;;;;;17.25;17.25;;;;;24.78;55.28;101137.22;4980639;28;45257;-68
2021/06/16 08:21:51;;;;;;;;;23.50;20.25;;;;;24.87;55.09;101132.84;4981473;28;45293;-67
2021/06/16 08:24:17;;;;;;;;;19.00;19.00;;;;;24.93;54.62;101137.72;4981747;28;45485;-67
2021/06/16 08:26:42;;;;;;;;;21.25;17.75;;;;;24.94;54.18;101128.63;4981292;28;46714;-67
2021/06/16 08:29:07;;;;;;;;;19.00;16.25;;;;;24.92;55.17;101127.94;4981678;28;46618;-67
2021/06/16 08:31:33;;;;;;;;;15.00;15.00;;;;;24.93;54.65;101129.66;4981816;28;45451;-67
2021/06/16 08:33:58;;;;;;;;;18.50;16.75;;;;;24.97;54.27;101124.81;4981054;28;45479;-67
2021/06/16 08:36:24;;;;;;;;;15.50;15.50;;;;;24.97;53.98;101127.53;4981020;28;45597;-67
2021/06/16 08:38:49;;;;;;;;;22.00;22.00;;;;;24.94;53.97;101123.25;4969119;28;46953;-67
2021/06/16 08:41:15;;;;;;;;;19.25;17.25;;;;;24.86;54.22;101120.44;4979166;28;45454;-67
2021/06/16 08:43:43;;;;;;;;;18.25;16.75;;;;;24.91;54.32;101117.31;4981531;28;45411;-67
2021/06/16 08:46:12;;;;;;;;;21.25;17.25;;;;;24.92;53.69;101119.88;4981439;28;45387;-67
2021/06/16 08:48:39;;;;;;;;;13.50;12.00;;;;;24.82;54.27;101110.91;4981512;28;45439;-67
2021/06/16 08:51:06;;;;;;;;;21.00;19.25;;;;;24.87;53.97;101119.41;4981123;28;45462;-67
2021/06/16 08:53:32;;;;;;;;;15.50;15.00;;;;;24.89;53.44;101114.75;4980756;28;45492;-67
2021/06/16 08:55:58;;;;;;;;;16.75;14.50;;;;;24.95;53.95;101106.16;4981501;28;45482;-68
2021/06/16 08:58:23;;;;;;;;;16.00;16.00;;;;;25.00;53.63;101105.78;4980467;28;45367;-68
2021/06/16 09:00:49;;;;;;;;;14.75;14.75;;;;;24.98;54.43;101096.97;4981341;28;45333;-68
2021/06/16 09:03:15;;;;;;;;;16.50;15.75;;;;;24.99;53.55;101106.72;4980994;28;45175;-68
2021/06/16 09:05:41;;;;;;;;;14.75;14.00;;;;;25.04;53.54;101107.19;4980325;28;45232;-68
2021/06/16 09:08:23;;;;;;;;;15.25;14.25;;;;;25.04;54.15;101107.19;4981308;28;45324;-68
2021/06/16 09:10:56;;;;;;;;;14.75;14.75;;;;;25.02;53.65;101108.31;4980853;28;45407;-68
2021/06/16 09:13:33;;;;;;;;;17.25;15.75;;;;;24.94;53.38;101101.75;4980072;28;45375;-68
2021/06/16 09:16:01;;;;;;;;;19.25;16.50;;;;;24.94;53.35;101101.75;4980664;28;45277;-68
2021/06/16 09:18:27;;;;;;;;;12.75;12.75;;;;;24.91;53.32;101090.44;4980568;28;45347;-68
2021/06/16 09:20:56;;;;;;;;;15.75;15.25;;;;;24.92;53.50;101090.28;4981162;28;45435;-68
2021/06/16 09:23:21;;;;;;;;;14.50;13.25;;;;;25.02;54.10;101086.81;4980935;28;45252;-68
2021/06/16 09:26:13;;;;;;;;;15.00;14.75;;;;;25.09;53.35;101087.94;4980370;28;45349;-68
2021/06/16 09:28:43;;;;;;;;;11.00;11.00;;;;;25.08;53.28;101088.09;4979391;28;46294;-68
2021/06/16 09:31:15;;;;;;;;;15.25;13.50;;;;;25.12;53.37;101076.94;4995491;28;45574;-68
2021/06/16 09:33:42;;;;;;;;;16.50;15.00;;;;;25.05;52.79;101079.34;4980360;28;45412;-68
2021/06/16 09:36:14;;;;;;;;;13.00;12.25;;;;;24.99;52.73;101076.31;4980509;28;45253;-68
2021/06/16 09:38:41;;;;;;;;;11.00;11.00;;;;;25.01;53.66;101074.38;4979399;28;46538;-68
2021/06/16 09:41:11;;;;;;;;;16.25;14.25;;;;;24.98;52.86;101075.47;4979423;28;45607;-67
2021/06/16 09:43:39;;;;;;;;;14.25;13.00;;;;;25.00;53.47;101078.88;4969861;28;45493;-68
2021/06/16 09:46:10;;;;;;;;;13.00;12.50;;;;;25.10;52.64;101068.16;4980195;28;45492;-68
2021/06/16 09:48:40;;;;;;;;;10.25;9.25;;;;;25.02;52.59;101065.31;4979842;28;46520;-68
2021/06/16 09:51:22;;;;;;;;;13.50;11.50;;;;;25.00;52.80;101062.75;4978220;28;45332;-68
2021/06/16 09:54:13;;;;;;;;;14.50;12.50;;;;;25.05;52.53;101067.72;4979216;28;45220;-68
2021/06/16 09:56:42;;;;;;;;;15.25;13.50;;;;;24.99;52.81;101066.41;4979747;28;45479;-67
2021/06/16 09:59:08;;;;;;;;;12.50;10.75;;;;;25.00;52.89;101069.97;4979406;28;45647;-68
2021/06/16 10:01:43;;;;;;;;;8.00;8.00;;;;;24.97;52.60;101078.28;4980492;28;45349;-68
2021/06/16 10:04:08;;;;;;;;;12.50;11.75;;;;;24.88;52.45;101072.75;4981133;28;45363;-68
2021/06/16 10:06:34;;;;;;;;;12.75;11.00;;;;;24.86;52.15;101066.66;4979778;28;45277;-67
2021/06/16 10:09:06;;;;;;;;;13.50;13.25;;;;;24.93;53.52;101067.81;4980475;28;46343;-68
2021/06/16 10:11:34;;;;;;;;;16.50;13.50;;;;;25.08;52.47;101069.28;4979011;28;45541;-69
2021/06/16 10:14:00;;;;;;;;;14.00;13.25;;;;;25.08;52.33;101066.59;4977867;28;45548;-69
2021/06/16 10:16:27;;;;;;;;;13.00;12.75;;;;;25.11;52.06;101067.19;4976483;28;45302;-69
2021/06/16 10:18:53;;;;;;;;;12.25;10.25;;;;;25.17;52.03;101072.00;4977723;28;47247;-69
2021/06/16 10:21:20;;;;;;;;;14.00;12.25;;;;;25.15;52.04;101065.91;4978060;28;45341;-69
2021/06/16 10:23:45;;;;;;;;;11.00;10.75;;;;;25.08;52.34;101064.75;4974937;28;45237;-69
2021/06/16 10:26:16;;;;;;;;;13.75;13.25;;;;;25.13;52.21;101053.59;4978467;28;45404;-69
2021/06/16 10:28:45;;;;;;;;;12.50;12.50;;;;;25.22;51.67;101059.94;4972285;28;46379;-69
2021/06/16 10:31:12;;;;;;;;;14.25;12.25;;;;;25.24;51.66;101058.81;4983662;28;45289;-69
2021/06/16 10:33:41;;;;;;;;;10.50;10.25;;;;;25.17;51.13;101052.31;4980120;28;45594;-69
2021/06/16 10:36:13;;;;;;;;;11.50;11.25;;;;;25.10;51.35;101048.47;4979370;28;45412;-69
2021/06/16 10:38:41;;;;;;;;;12.25;12.25;;;;;25.06;51.51;101046.06;4979706;28;45466;-69
2021/06/16 10:41:08;;;;;;;;;13.00;13.00;;;;;25.11;52.00;101036.75;4979646;28;45420;-69
2021/06/16 10:43:37;;;;;;;;;14.00;13.50;;;;;25.21;51.50;101036.75;4983960;28;45225;-69
2021/06/16 10:46:16;;;;;;;;;14.25;13.50;;;;;25.35;51.59;101028.25;4973460;28;46962;-69
2021/06/16 10:48:48;;;;;;;;;12.00;12.00;;;;;25.36;50.89;101040.69;4978620;28;46395;-69
2021/06/16 10:51:23;;;;;;;;;13.00;11.75;;;;;25.24;50.94;101033.75;4996625;28;45577;-69
2021/06/16 10:54:13;;;;;;;;;13.50;13.50;;;;;25.28;51.64;101032.50;4991403;28;45307;-69
2021/06/16 10:56:44;;;;;;;;;11.25;11.25;;;;;25.34;51.05;101029.25;4971366;28;45393;-69
2021/06/16 10:59:11;;;;;;;;;11.75;11.75;;;;;25.39;51.21;101018.91;4986249;28;45384;-69
2021/06/16 11:01:50;;;;;;;;;13.00;13.00;;;;;25.47;51.43;101020.03;4978141;28;46122;-69
2021/06/16 11:04:27;;;;;;;;;14.00;12.75;;;;;25.45;50.88;101022.88;4981384;28;45304;-69
2021/06/16 11:06:52;;;;;;;;;10.00;8.00;;;;;25.31;50.47;101021.44;4977144;28;46713;-69
2021/06/16 11:09:17;;;;;;;;;12.25;12.25;;;;;25.24;50.88;101020.31;4982973;28;45455;-69
2021/06/16 11:11:46;;;;;;;;;15.25;14.00;;;;;25.22;50.94;101015.09;4982585;28;45736;-69